メインページ
METAR-TAF:

METAR-TAF

空港 :

バーレーン, バーレーン

バーレーン国際空港

緯度: 26-16N, 経度: 050-39E, 海抜: 2m

現時点の気象観測

当レポートは7分前の15:30(UTC)に作成
南東の風 8kt
気温 30°C
湿度 55%
気圧 1006 hPa
視程: 8000m

METAR: OBBI 231530Z 13008KT 8000 NSC 30/20 Q1006 BECMG 3000 DU

時間: 18:37 (15:37 UTC)

予報

当レポートは4時間37分前の11:00(UTC)に作成
予報は23日の 12時(UTC)から 24日の 18時(UTC)まで有効
の風 17kt
視程: 6000m
確率 30% :
23日の 12時(UTC)から 23日の 15時(UTC)まで一時的に
変向風 20kt、最大30ktの突風を伴う
高度4000ftの雲は散在している, 積乱雲.
激しい雷雨, 雨
23日の 15時(UTC)から 23日の 17時(UTC)まで徐々に
の風 20kt
23日の 15時(UTC)から 24日の 06時(UTC)まで一時的に
視程: 3000m
広範な塵

TAF: OBBI 231100Z 2312/2418 10017KT 6000 NSC PROB30 TEMPO 2312/2315 VRB20G30KT TSRA SCT040CB BECMG 2315/2317 35020KT TEMPO 2315/2406 3000 DU

4,000以上の空港の気象観測と天気予報(METAR報とTAF報)

利用可能な観測所は地図上に黄色い丸と赤い丸で示す。

丸の上にカーソルを重ねると観測所名を参照できる。

次にクリックすると気象観測と天気予報を参照できる。

マップの切り替え:黒色「×」印の緑ボタンをクリックして拡大、「-」印の緑ボタンをクリックして縮小、緑色の三角印をクリックして隣りの地図に切り替え


METAR-TAF: